sensor_id;sensor_type;location;lat;lon;timestamp;pressure;altitude;pressure_sealevel;temperature;humidity
4586;BME280;2305;50.118;8.952;2023-05-11T00:02:24;100312.38;;;13.70;100.00
4586;BME280;2305;50.118;8.952;2023-05-11T00:04:53;100319.63;;;13.68;100.00
4586;BME280;2305;50.118;8.952;2023-05-11T00:07:21;100316.56;;;13.63;100.00
4586;BME280;2305;50.118;8.952;2023-05-11T00:09:50;100319.34;;;13.62;100.00
4586;BME280;2305;50.118;8.952;2023-05-11T00:12:18;100316.03;;;13.60;100.00
4586;BME280;2305;50.118;8.952;2023-05-11T00:14:49;100324.97;;;13.59;100.00
4586;BME280;2305;50.118;8.952;2023-05-11T00:17:18;100316.47;;;13.55;100.00
4586;BME280;2305;50.118;8.952;2023-05-11T00:19:50;100320.22;;;13.53;100.00
4586;BME280;2305;50.118;8.952;2023-05-11T00:22:18;100322.88;;;13.53;100.00
4586;BME280;2305;50.118;8.952;2023-05-11T00:24:47;100317.03;;;13.49;100.00
4586;BME280;2305;50.118;8.952;2023-05-11T00:27:16;100318.84;;;13.49;100.00
4586;BME280;2305;50.118;8.952;2023-05-11T00:29:46;100321.66;;;13.47;100.00
4586;BME280;2305;50.118;8.952;2023-05-11T00:32:15;100319.44;;;13.43;100.00
4586;BME280;2305;50.118;8.952;2023-05-11T00:34:46;100323.47;;;13.37;100.00
4586;BME280;2305;50.118;8.952;2023-05-11T00:37:16;100312.06;;;13.37;100.00
4586;BME280;2305;50.118;8.952;2023-05-11T00:39:44;100312.63;;;13.31;100.00
4586;BME280;2305;50.118;8.952;2023-05-11T00:42:18;100314.72;;;13.27;100.00
4586;BME280;2305;50.118;8.952;2023-05-11T00:44:46;100314.16;;;13.24;100.00
4586;BME280;2305;50.118;8.952;2023-05-11T00:47:17;100316.25;;;13.20;100.00
4586;BME280;2305;50.118;8.952;2023-05-11T00:49:45;100315.56;;;13.18;100.00
4586;BME280;2305;50.118;8.952;2023-05-11T00:52:16;100318.63;;;13.14;100.00
4586;BME280;2305;50.118;8.952;2023-05-11T00:54:45;100316.97;;;13.13;100.00
4586;BME280;2305;50.118;8.952;2023-05-11T00:57:16;100312.78;;;13.10;100.00
4586;BME280;2305;50.118;8.952;2023-05-11T00:59:46;100315.97;;;13.14;100.00
4586;BME280;2305;50.118;8.952;2023-05-11T01:02:15;100310.56;;;13.15;100.00
4586;BME280;2305;50.118;8.952;2023-05-11T01:04:46;100308.59;;;13.17;100.00
4586;BME280;2305;50.118;8.952;2023-05-11T01:07:20;100313.31;;;13.14;100.00
4586;BME280;2305;50.118;8.952;2023-05-11T01:09:59;100318.78;;;13.12;100.00
4586;BME280;2305;50.118;8.952;2023-05-11T01:12:39;100319.22;;;13.08;100.00
4586;BME280;2305;50.118;8.952;2023-05-11T01:15:23;100304.16;;;13.08;100.00
4586;BME280;2305;50.118;8.952;2023-05-11T01:18:00;100305.00;;;13.09;100.00
4586;BME280;2305;50.118;8.952;2023-05-11T01:20:33;100307.91;;;13.06;100.00
4586;BME280;2305;50.118;8.952;2023-05-11T01:26:37;100316.00;;;13.04;100.00
4586;BME280;2305;50.118;8.952;2023-05-11T01:32:14;100308.22;;;13.03;100.00
4586;BME280;2305;50.118;8.952;2023-05-11T01:34:45;100310.16;;;13.01;100.00
4586;BME280;2305;50.118;8.952;2023-05-11T01:37:18;100310.44;;;12.98;100.00
4586;BME280;2305;50.118;8.952;2023-05-11T01:39:51;100315.84;;;12.96;100.00
4586;BME280;2305;50.118;8.952;2023-05-11T01:42:24;100312.78;;;12.91;100.00
4586;BME280;2305;50.118;8.952;2023-05-11T01:44:58;100309.41;;;12.89;100.00
4586;BME280;2305;50.118;8.952;2023-05-11T01:47:34;100305.28;;;12.87;100.00
4586;BME280;2305;50.118;8.952;2023-05-11T01:50:08;100303.75;;;12.84;100.00
4586;BME280;2305;50.118;8.952;2023-05-11T01:52:38;100304.56;;;12.85;100.00
4586;BME280;2305;50.118;8.952;2023-05-11T01:55:08;100315.00;;;12.86;100.00
4586;BME280;2305;50.118;8.952;2023-05-11T01:57:38;100314.56;;;12.81;100.00
4586;BME280;2305;50.118;8.952;2023-05-11T02:00:10;100318.50;;;12.77;100.00
4586;BME280;2305;50.118;8.952;2023-05-11T02:02:44;100314.03;;;12.78;100.00
4586;BME280;2305;50.118;8.952;2023-05-11T02:05:20;100318.34;;;12.79;100.00
4586;BME280;2305;50.118;8.952;2023-05-11T02:07:51;100313.88;;;12.79;100.00
4586;BME280;2305;50.118;8.952;2023-05-11T02:10:26;100314.19;;;12.76;100.00
4586;BME280;2305;50.118;8.952;2023-05-11T02:12:57;100324.75;;;12.76;100.00
4586;BME280;2305;50.118;8.952;2023-05-11T02:15:29;100327.53;;;12.75;100.00
4586;BME280;2305;50.118;8.952;2023-05-11T02:18:00;100328.63;;;12.72;100.00
4586;BME280;2305;50.118;8.952;2023-05-11T02:20:31;100328.63;;;12.72;100.00
4586;BME280;2305;50.118;8.952;2023-05-11T02:23:04;100329.50;;;12.73;100.00
4586;BME280;2305;50.118;8.952;2023-05-11T02:25:35;100324.19;;;12.73;100.00
4586;BME280;2305;50.118;8.952;2023-05-11T02:28:04;100324.31;;;12.71;100.00
4586;BME280;2305;50.118;8.952;2023-05-11T02:30:39;100333.09;;;12.72;100.00
4586;BME280;2305;50.118;8.952;2023-05-11T02:33:14;100327.25;;;12.68;100.00
4586;BME280;2305;50.118;8.952;2023-05-11T02:35:47;100325.72;;;12.66;100.00
4586;BME280;2305;50.118;8.952;2023-05-11T02:38:22;100323.09;;;12.66;100.00
4586;BME280;2305;50.118;8.952;2023-05-11T02:40:57;100319.88;;;12.62;100.00
4586;BME280;2305;50.118;8.952;2023-05-11T02:43:34;100325.41;;;12.59;100.00
4586;BME280;2305;50.118;8.952;2023-05-11T02:46:05;100326.69;;;12.55;100.00
4586;BME280;2305;50.118;8.952;2023-05-11T02:48:42;100320.69;;;12.53;100.00
4586;BME280;2305;50.118;8.952;2023-05-11T02:51:13;100314.69;;;12.51;100.00
4586;BME280;2305;50.118;8.952;2023-05-11T02:53:48;100317.63;;;12.48;100.00
4586;BME280;2305;50.118;8.952;2023-05-11T02:56:22;100323.59;;;12.50;100.00
4586;BME280;2305;50.118;8.952;2023-05-11T02:58:53;100319.19;;;12.51;100.00
4586;BME280;2305;50.118;8.952;2023-05-11T03:01:25;100318.19;;;12.52;100.00
4586;BME280;2305;50.118;8.952;2023-05-11T03:04:02;100314.16;;;12.48;100.00
4586;BME280;2305;50.118;8.952;2023-05-11T03:06:31;100324.84;;;12.46;100.00
4586;BME280;2305;50.118;8.952;2023-05-11T03:09:02;100311.78;;;12.45;100.00
4586;BME280;2305;50.118;8.952;2023-05-11T03:11:34;100319.00;;;12.43;100.00
4586;BME280;2305;50.118;8.952;2023-05-11T03:14:05;100316.34;;;12.43;100.00
4586;BME280;2305;50.118;8.952;2023-05-11T03:16:36;100321.78;;;12.41;100.00
4586;BME280;2305;50.118;8.952;2023-05-11T03:19:08;100325.53;;;12.39;100.00
4586;BME280;2305;50.118;8.952;2023-05-11T03:21:38;100321.06;;;12.39;100.00
4586;BME280;2305;50.118;8.952;2023-05-11T03:24:08;100317.19;;;12.43;100.00
4586;BME280;2305;50.118;8.952;2023-05-11T03:26:38;100321.78;;;12.41;100.00
4586;BME280;2305;50.118;8.952;2023-05-11T03:29:09;100322.78;;;12.40;100.00
4586;BME280;2305;50.118;8.952;2023-05-11T03:31:39;100318.44;;;12.39;100.00
4586;BME280;2305;50.118;8.952;2023-05-11T03:34:14;100321.34;;;12.36;100.00
4586;BME280;2305;50.118;8.952;2023-05-11T03:36:46;100321.06;;;12.39;100.00
4586;BME280;2305;50.118;8.952;2023-05-11T03:39:18;100322.78;;;12.40;100.00
4586;BME280;2305;50.118;8.952;2023-05-11T03:41:49;100316.63;;;12.40;100.00
4586;BME280;2305;50.118;8.952;2023-05-11T03:44:21;100308.84;;;12.38;100.00
4586;BME280;2305;50.118;8.952;2023-05-11T03:46:52;100320.25;;;12.39;100.00
4586;BME280;2305;50.118;8.952;2023-05-11T03:49:23;100320.13;;;12.40;100.00
4586;BME280;2305;50.118;8.952;2023-05-11T03:51:53;100320.25;;;12.39;100.00
4586;BME280;2305;50.118;8.952;2023-05-11T03:54:25;100323.88;;;12.38;100.00
4586;BME280;2305;50.118;8.952;2023-05-11T03:56:54;100311.34;;;12.40;100.00
4586;BME280;2305;50.118;8.952;2023-05-11T03:59:23;100325.41;;;12.40;100.00
4586;BME280;2305;50.118;8.952;2023-05-11T04:01:52;100316.75;;;12.38;100.00
4586;BME280;2305;50.118;8.952;2023-05-11T04:04:28;100315.94;;;12.38;100.00
4586;BME280;2305;50.118;8.952;2023-05-11T04:06:59;100316.50;;;12.41;100.00
4586;BME280;2305;50.118;8.952;2023-05-11T04:09:29;100315.53;;;12.42;100.00
4586;BME280;2305;50.118;8.952;2023-05-11T04:11:57;100313.59;;;12.44;100.00
4586;BME280;2305;50.118;8.952;2023-05-11T04:14:31;100315.53;;;12.42;100.00
4586;BME280;2305;50.118;8.952;2023-05-11T04:16:59;100312.59;;;12.45;100.00
4586;BME280;2305;50.118;8.952;2023-05-11T04:19:30;100321.09;;;12.49;100.00
4586;BME280;2305;50.118;8.952;2023-05-11T04:22:00;100314.56;;;12.53;100.00
4586;BME280;2305;50.118;8.952;2023-05-11T04:24:31;100313.19;;;12.58;100.00
4586;BME280;2305;50.118;8.952;2023-05-11T04:27:00;100313.06;;;12.60;100.00
4586;BME280;2305;50.118;8.952;2023-05-11T04:29:28;100319.72;;;12.64;100.00
4586;BME280;2305;50.118;8.952;2023-05-11T04:31:59;100327.53;;;12.65;100.00
4586;BME280;2305;50.118;8.952;2023-05-11T04:34:30;100328.75;;;12.71;100.00
4586;BME280;2305;50.118;8.952;2023-05-11T04:37:00;100327.53;;;12.75;100.00
4586;BME280;2305;50.118;8.952;2023-05-11T04:39:34;100333.38;;;12.78;100.00
4586;BME280;2305;50.118;8.952;2023-05-11T04:42:03;100331.16;;;12.83;100.00
4586;BME280;2305;50.118;8.952;2023-05-11T04:44:33;100333.94;;;12.82;100.00
4586;BME280;2305;50.118;8.952;2023-05-11T04:47:02;100327.53;;;12.84;100.00
4586;BME280;2305;50.118;8.952;2023-05-11T04:49:33;100336.03;;;12.88;100.00
4586;BME280;2305;50.118;8.952;2023-05-11T04:52:02;100333.09;;;12.91;100.00
4586;BME280;2305;50.118;8.952;2023-05-11T04:54:31;100331.97;;;12.93;100.00
4586;BME280;2305;50.118;8.952;2023-05-11T04:56:59;100338.94;;;12.94;100.00
4586;BME280;2305;50.118;8.952;2023-05-11T04:59:29;100336.06;;;12.97;100.00
4586;BME280;2305;50.118;8.952;2023-05-11T05:01:57;100331.34;;;13.01;100.00
4586;BME280;2305;50.118;8.952;2023-05-11T05:04:25;100336.31;;;13.04;100.00
4586;BME280;2305;50.118;8.952;2023-05-11T05:06:55;100341.31;;;13.07;100.00
4586;BME280;2305;50.118;8.952;2023-05-11T05:09:24;100337.44;;;13.11;100.00
4586;BME280;2305;50.118;8.952;2023-05-11T05:11:54;100350.25;;;13.15;100.00
4586;BME280;2305;50.118;8.952;2023-05-11T05:14:25;100342.59;;;13.22;100.00
4586;BME280;2305;50.118;8.952;2023-05-11T05:16:54;100345.63;;;13.27;100.00
4586;BME280;2305;50.118;8.952;2023-05-11T05:19:26;100345.06;;;13.33;100.00
4586;BME280;2305;50.118;8.952;2023-05-11T05:21:57;100347.00;;;13.40;100.00
4586;BME280;2305;50.118;8.952;2023-05-11T05:24:25;100340.59;;;13.43;100.00
4586;BME280;2305;50.118;8.952;2023-05-11T05:26:54;100352.69;;;13.45;100.00
4586;BME280;2305;50.118;8.952;2023-05-11T05:29:23;100348.66;;;13.51;100.00
4586;BME280;2305;50.118;8.952;2023-05-11T05:31:54;100350.88;;;13.55;100.00
4586;BME280;2305;50.118;8.952;2023-05-11T05:34:27;100345.97;;;13.60;100.00
4586;BME280;2305;50.118;8.952;2023-05-11T05:36:59;100356.69;;;13.68;100.00
4586;BME280;2305;50.118;8.952;2023-05-11T05:39:28;100353.06;;;13.69;100.00
4586;BME280;2305;50.118;8.952;2023-05-11T05:41:57;100357.94;;;13.73;100.00
4586;BME280;2305;50.118;8.952;2023-05-11T05:44:28;100360.00;;;13.79;100.00
4586;BME280;2305;50.118;8.952;2023-05-11T05:47:01;100356.25;;;13.82;100.00
4586;BME280;2305;50.118;8.952;2023-05-11T05:49:32;100364.56;;;13.87;100.00
4586;BME280;2305;50.118;8.952;2023-05-11T05:52:06;100370.13;;;13.93;100.00
4586;BME280;2305;50.118;8.952;2023-05-11T05:54:35;100375.28;;;13.95;100.00
4586;BME280;2305;50.118;8.952;2023-05-11T05:57:03;100374.16;;;13.97;100.00
4586;BME280;2305;50.118;8.952;2023-05-11T05:59:35;100371.22;;;14.00;100.00
4586;BME280;2305;50.118;8.952;2023-05-11T06:02:10;100367.72;;;14.00;100.00
4586;BME280;2305;50.118;8.952;2023-05-11T06:04:40;100363.28;;;14.00;100.00
4586;BME280;2305;50.118;8.952;2023-05-11T06:07:16;100364.38;;;14.07;100.00
4586;BME280;2305;50.118;8.952;2023-05-11T06:09:47;100377.00;;;14.13;100.00
4586;BME280;2305;50.118;8.952;2023-05-11T06:12:15;100368.38;;;14.11;100.00
4586;BME280;2305;50.118;8.952;2023-05-11T06:14:46;100376.88;;;14.15;100.00
4586;BME280;2305;50.118;8.952;2023-05-11T06:17:15;100378.28;;;14.19;100.00
4586;BME280;2305;50.118;8.952;2023-05-11T06:19:48;100379.97;;;14.20;100.00
4586;BME280;2305;50.118;8.952;2023-05-11T06:22:26;100381.63;;;14.21;100.00
4586;BME280;2305;50.118;8.952;2023-05-11T06:24:54;100381.63;;;14.21;100.00
4586;BME280;2305;50.118;8.952;2023-05-11T06:27:27;100377.72;;;14.25;100.00
4586;BME280;2305;50.118;8.952;2023-05-11T06:30:01;100383.16;;;14.23;100.00
4586;BME280;2305;50.118;8.952;2023-05-11T06:32:33;100385.25;;;14.20;100.00
4586;BME280;2305;50.118;8.952;2023-05-11T06:35:02;100384.69;;;14.26;100.00
4586;BME280;2305;50.118;8.952;2023-05-11T06:37:35;100384.38;;;14.29;100.00
4586;BME280;2305;50.118;8.952;2023-05-11T06:40:08;100381.28;;;14.33;100.00
4586;BME280;2305;50.118;8.952;2023-05-11T06:42:36;100381.53;;;14.40;100.00
4586;BME280;2305;50.118;8.952;2023-05-11T06:45:08;100382.63;;;14.47;100.00
4586;BME280;2305;50.118;8.952;2023-05-11T06:47:40;100378.97;;;14.48;100.00
4586;BME280;2305;50.118;8.952;2023-05-11T06:50:11;100380.19;;;14.53;100.00
4586;BME280;2305;50.118;8.952;2023-05-11T06:52:45;100384.06;;;14.59;100.00
4586;BME280;2305;50.118;8.952;2023-05-11T06:55:13;100372.19;;;14.63;100.00
4586;BME280;2305;50.118;8.952;2023-05-11T06:57:44;100369.38;;;14.64;100.00
4586;BME280;2305;50.118;8.952;2023-05-11T07:00:16;100373.56;;;14.67;100.00
4586;BME280;2305;50.118;8.952;2023-05-11T07:02:44;100376.44;;;14.73;100.00
4586;BME280;2305;50.118;8.952;2023-05-11T07:05:13;100380.03;;;14.82;100.00
4586;BME280;2305;50.118;8.952;2023-05-11T07:07:45;100374.41;;;14.85;100.00
4586;BME280;2305;50.118;8.952;2023-05-11T07:10:18;100376.44;;;14.91;100.00
4586;BME280;2305;50.118;8.952;2023-05-11T07:12:46;100377.19;;;14.83;100.00
4586;BME280;2305;50.118;8.952;2023-05-11T07:15:15;100377.72;;;14.87;100.00
4586;BME280;2305;50.118;8.952;2023-05-11T07:17:44;100372.34;;;14.96;100.00
4586;BME280;2305;50.118;8.952;2023-05-11T07:20:16;100377.13;;;15.10;100.00
4586;BME280;2305;50.118;8.952;2023-05-11T07:22:47;100374.94;;;15.23;100.00
4586;BME280;2305;50.118;8.952;2023-05-11T07:25:15;100373.88;;;15.34;100.00
4586;BME280;2305;50.118;8.952;2023-05-11T07:27:46;100380.41;;;15.39;100.00
4586;BME280;2305;50.118;8.952;2023-05-11T07:30:14;100378.66;;;15.48;100.00
4586;BME280;2305;50.118;8.952;2023-05-11T07:32:47;100376.03;;;15.56;100.00
4586;BME280;2305;50.118;8.952;2023-05-11T07:35:15;100372.16;;;15.68;100.00
4586;BME280;2305;50.118;8.952;2023-05-11T07:37:47;100378.31;;;15.76;100.00
4586;BME280;2305;50.118;8.952;2023-05-11T07:40:15;100381.34;;;15.81;100.00
4586;BME280;2305;50.118;8.952;2023-05-11T07:42:45;100385.38;;;15.85;100.00
4586;BME280;2305;50.118;8.952;2023-05-11T07:45:16;100386.56;;;15.91;100.00
4586;BME280;2305;50.118;8.952;2023-05-11T07:47:44;100380.25;;;15.92;100.00
4586;BME280;2305;50.118;8.952;2023-05-11T07:50:13;100388.38;;;15.90;100.00
4586;BME280;2305;50.118;8.952;2023-05-11T07:52:43;100382.91;;;15.92;100.00
4586;BME280;2305;50.118;8.952;2023-05-11T07:55:14;100381.63;;;15.96;100.00
4586;BME280;2305;50.118;8.952;2023-05-11T07:57:48;100380.53;;;16.06;100.00
4586;BME280;2305;50.118;8.952;2023-05-11T08:00:18;100375.38;;;16.13;100.00
4586;BME280;2305;50.118;8.952;2023-05-11T08:02:48;100373.44;;;16.23;100.00
4586;BME280;2305;50.118;8.952;2023-05-11T08:05:18;100372.47;;;16.24;100.00
4586;BME280;2305;50.118;8.952;2023-05-11T08:07:47;100376.28;;;16.21;100.00
4586;BME280;2305;50.118;8.952;2023-05-11T08:10:17;100373.75;;;16.20;100.00
4586;BME280;2305;50.118;8.952;2023-05-11T08:12:46;100377.91;;;16.14;100.00
4586;BME280;2305;50.118;8.952;2023-05-11T08:15:14;100381.06;;;16.18;100.00
4586;BME280;2305;50.118;8.952;2023-05-11T08:17:43;100372.63;;;16.22;100.00
4586;BME280;2305;50.118;8.952;2023-05-11T08:20:12;100376.81;;;16.33;100.00
4586;BME280;2305;50.118;8.952;2023-05-11T08:22:41;100375.31;;;16.30;100.00
4586;BME280;2305;50.118;8.952;2023-05-11T08:25:09;100376.97;;;16.31;100.00
4586;BME280;2305;50.118;8.952;2023-05-11T08:27:41;100373.16;;;16.34;100.00
4586;BME280;2305;50.118;8.952;2023-05-11T08:30:11;100374.00;;;16.34;100.00
4586;BME280;2305;50.118;8.952;2023-05-11T08:32:43;100374.22;;;16.41;100.00
4586;BME280;2305;50.118;8.952;2023-05-11T08:35:27;100380.41;;;16.49;100.00
4586;BME280;2305;50.118;8.952;2023-05-11T08:37:57;100381.19;;;16.42;100.00
4586;BME280;2305;50.118;8.952;2023-05-11T08:40:26;100386.22;;;16.45;100.00
4586;BME280;2305;50.118;8.952;2023-05-11T08:42:59;100385.88;;;16.48;100.00
4586;BME280;2305;50.118;8.952;2023-05-11T08:45:28;100379.56;;;16.49;100.00
4586;BME280;2305;50.118;8.952;2023-05-11T08:48:02;100380.56;;;16.48;100.00
4586;BME280;2305;50.118;8.952;2023-05-11T08:50:30;100380.91;;;16.53;100.00
4586;BME280;2305;50.118;8.952;2023-05-11T08:52:58;100377.91;;;16.48;100.00
4586;BME280;2305;50.118;8.952;2023-05-11T08:55:27;100390.19;;;16.49;100.00
4586;BME280;2305;50.118;8.952;2023-05-11T08:57:58;100383.69;;;16.43;100.00
4586;BME280;2305;50.118;8.952;2023-05-11T09:00:33;100387.88;;;16.46;100.00
4586;BME280;2305;50.118;8.952;2023-05-11T09:03:06;100382.38;;;16.47;100.00
4586;BME280;2305;50.118;8.952;2023-05-11T09:05:36;100394.69;;;16.48;100.00
4586;BME280;2305;50.118;8.952;2023-05-11T09:08:09;100390.34;;;16.47;100.00
4586;BME280;2305;50.118;8.952;2023-05-11T09:10:40;100393.53;;;16.51;100.00
4586;BME280;2305;50.118;8.952;2023-05-11T09:13:12;100394.88;;;16.55;100.00
4586;BME280;2305;50.118;8.952;2023-05-11T09:15:43;100389.53;;;16.47;100.00
4586;BME280;2305;50.118;8.952;2023-05-11T09:18:12;100394.19;;;16.45;100.00
4586;BME280;2305;50.118;8.952;2023-05-11T09:20:42;100398.16;;;16.41;100.00
4586;BME280;2305;50.118;8.952;2023-05-11T09:23:14;100394.66;;;16.40;100.00
4586;BME280;2305;50.118;8.952;2023-05-11T09:25:44;100393.50;;;16.43;100.00
4586;BME280;2305;50.118;8.952;2023-05-11T09:28:14;100394.00;;;16.46;100.00
4586;BME280;2305;50.118;8.952;2023-05-11T09:30:52;100395.38;;;16.50;100.00
4586;BME280;2305;50.118;8.952;2023-05-11T09:33:22;100383.91;;;16.58;100.00
4586;BME280;2305;50.118;8.952;2023-05-11T09:35:52;100392.09;;;16.72;100.00
4586;BME280;2305;50.118;8.952;2023-05-11T09:38:23;100389.47;;;16.80;100.00
4586;BME280;2305;50.118;8.952;2023-05-11T09:40:53;100386.81;;;16.88;100.00
4586;BME280;2305;50.118;8.952;2023-05-11T09:43:25;100387.97;;;16.94;100.00
4586;BME280;2305;50.118;8.952;2023-05-11T09:45:56;100388.97;;;16.93;100.00
4586;BME280;2305;50.118;8.952;2023-05-11T09:48:29;100397.31;;;16.98;100.00
4586;BME280;2305;50.118;8.952;2023-05-11T09:51:02;100394.00;;;16.96;100.00
4586;BME280;2305;50.118;8.952;2023-05-11T09:53:35;100391.16;;;16.97;100.00
4586;BME280;2305;50.118;8.952;2023-05-11T09:56:05;100385.16;;;17.03;100.00
4586;BME280;2305;50.118;8.952;2023-05-11T09:58:46;100390.50;;;17.11;100.00
4586;BME280;2305;50.118;8.952;2023-05-11T10:01:27;100392.34;;;17.19;100.00
4586;BME280;2305;50.118;8.952;2023-05-11T10:03:57;100392.69;;;17.32;100.00
4586;BME280;2305;50.118;8.952;2023-05-11T10:06:48;100395.25;;;17.41;100.00
4586;BME280;2305;50.118;8.952;2023-05-11T10:09:22;100384.22;;;17.44;100.00
4586;BME280;2305;50.118;8.952;2023-05-11T10:11:52;100388.56;;;17.45;100.00
4586;BME280;2305;50.118;8.952;2023-05-11T10:14:26;100377.38;;;17.58;100.00
4586;BME280;2305;50.118;8.952;2023-05-11T10:16:57;100378.38;;;17.65;100.00
4586;BME280;2305;50.118;8.952;2023-05-11T10:19:28;100376.38;;;17.75;100.00
4586;BME280;2305;50.118;8.952;2023-05-11T10:21:58;100369.88;;;17.77;100.00
4586;BME280;2305;50.118;8.952;2023-05-11T10:24:34;100380.34;;;17.79;100.00
4586;BME280;2305;50.118;8.952;2023-05-11T10:27:03;100382.34;;;17.85;100.00
4586;BME280;2305;50.118;8.952;2023-05-11T10:29:36;100378.69;;;17.86;100.00
4586;BME280;2305;50.118;8.952;2023-05-11T10:32:09;100372.84;;;17.82;100.00
4586;BME280;2305;50.118;8.952;2023-05-11T10:34:38;100373.34;;;17.86;100.00
4586;BME280;2305;50.118;8.952;2023-05-11T10:37:08;100375.97;;;17.94;100.00
4586;BME280;2305;50.118;8.952;2023-05-11T10:39:43;100376.31;;;17.99;100.00
4586;BME280;2305;50.118;8.952;2023-05-11T10:42:38;100377.47;;;18.04;100.00
4586;BME280;2305;50.118;8.952;2023-05-11T10:45:17;100369.28;;;18.06;100.00
4586;BME280;2305;50.118;8.952;2023-05-11T10:48:14;100372.41;;;18.17;100.00
4586;BME280;2305;50.118;8.952;2023-05-11T10:51:04;100372.88;;;18.29;100.00
4586;BME280;2305;50.118;8.952;2023-05-11T10:53:49;100370.72;;;18.32;100.00
4586;BME280;2305;50.118;8.952;2023-05-11T10:56:54;100372.53;;;18.40;100.00
4586;BME280;2305;50.118;8.952;2023-05-11T11:02:34;100375.75;;;18.27;100.00
4586;BME280;2305;50.118;8.952;2023-05-11T11:05:06;100367.94;;;18.18;100.00
4586;BME280;2305;50.118;8.952;2023-05-11T11:07:56;100367.78;;;18.03;100.00
4586;BME280;2305;50.118;8.952;2023-05-11T11:10:30;100365.13;;;18.03;100.00
4586;BME280;2305;50.118;8.952;2023-05-11T11:13:04;100364.88;;;17.74;100.00
4586;BME280;2305;50.118;8.952;2023-05-11T11:16:08;100366.38;;;17.77;100.00
4586;BME280;2305;50.118;8.952;2023-05-11T11:18:42;100366.88;;;17.72;100.00
4586;BME280;2305;50.118;8.952;2023-05-11T11:21:11;100367.91;;;17.63;100.00
4586;BME280;2305;50.118;8.952;2023-05-11T11:23:49;100366.06;;;17.56;100.00
4586;BME280;2305;50.118;8.952;2023-05-11T11:26:48;100362.75;;;17.54;100.00
4586;BME280;2305;50.118;8.952;2023-05-11T11:29:17;100363.41;;;17.48;100.00
4586;BME280;2305;50.118;8.952;2023-05-11T11:31:46;100365.09;;;17.41;100.00
4586;BME280;2305;50.118;8.952;2023-05-11T11:34:34;100359.56;;;17.34;100.00
4586;BME280;2305;50.118;8.952;2023-05-11T11:37:08;100358.56;;;17.27;100.00
4586;BME280;2305;50.118;8.952;2023-05-11T11:39:48;100355.56;;;17.14;100.00
4586;BME280;2305;50.118;8.952;2023-05-11T11:42:32;100358.75;;;17.10;100.00
4586;BME280;2305;50.118;8.952;2023-05-11T11:45:25;100352.41;;;17.03;100.00
4586;BME280;2305;50.118;8.952;2023-05-11T11:48:14;100364.72;;;17.04;100.00
4586;BME280;2305;50.118;8.952;2023-05-11T11:50:48;100361.06;;;17.05;100.00
4586;BME280;2305;50.118;8.952;2023-05-11T11:54:02;100360.56;;;17.09;100.00
4586;BME280;2305;50.118;8.952;2023-05-11T11:56:44;100363.38;;;17.00;100.00
4586;BME280;2305;50.118;8.952;2023-05-11T11:59:15;100365.72;;;17.03;100.00
4586;BME280;2305;50.118;8.952;2023-05-11T12:01:43;100357.53;;;17.04;100.00
4586;BME280;2305;50.118;8.952;2023-05-11T12:04:39;100358.03;;;17.00;100.00
4586;BME280;2305;50.118;8.952;2023-05-11T12:07:23;100356.88;;;17.10;100.00
4586;BME280;2305;50.118;8.952;2023-05-11T12:09:55;100355.22;;;17.17;100.00
4586;BME280;2305;50.118;8.952;2023-05-11T12:12:25;100353.56;;;17.24;100.00
4586;BME280;2305;50.118;8.952;2023-05-11T12:14:54;100359.41;;;17.28;100.00
4586;BME280;2305;50.118;8.952;2023-05-11T12:17:30;100362.56;;;17.31;100.00
4586;BME280;2305;50.118;8.952;2023-05-11T12:20:14;100362.78;;;17.38;100.00
4586;BME280;2305;50.118;8.952;2023-05-11T12:22:45;100360.25;;;17.52;100.00
4586;BME280;2305;50.118;8.952;2023-05-11T12:25:19;100355.38;;;17.72;100.00
4586;BME280;2305;50.118;8.952;2023-05-11T12:27:52;100350.34;;;17.93;100.00
4586;BME280;2305;50.118;8.952;2023-05-11T12:30:22;100357.13;;;18.03;100.00
4586;BME280;2305;50.118;8.952;2023-05-11T12:32:54;100352.56;;;18.20;100.00
4586;BME280;2305;50.118;8.952;2023-05-11T12:35:26;100350.06;;;18.18;100.00
4586;BME280;2305;50.118;8.952;2023-05-11T12:37:59;100345.16;;;18.46;100.00
4586;BME280;2305;50.118;8.952;2023-05-11T12:40:29;100343.41;;;18.61;100.00
4586;BME280;2305;50.118;8.952;2023-05-11T12:42:58;100345.97;;;18.77;100.00
4586;BME280;2305;50.118;8.952;2023-05-11T12:45:30;100342.88;;;18.65;100.00
4586;BME280;2305;50.118;8.952;2023-05-11T12:48:04;100334.69;;;18.67;100.00
4586;BME280;2305;50.118;8.952;2023-05-11T12:50:38;100340.22;;;18.65;100.00
4586;BME280;2305;50.118;8.952;2023-05-11T12:53:14;100340.91;;;18.59;100.00
4586;BME280;2305;50.118;8.952;2023-05-11T12:55:43;100332.41;;;18.56;100.00
4586;BME280;2305;50.118;8.952;2023-05-11T12:58:13;100335.56;;;18.59;100.00
4586;BME280;2305;50.118;8.952;2023-05-11T13:01:00;100330.22;;;18.59;100.00
4586;BME280;2305;50.118;8.952;2023-05-11T13:03:35;100329.94;;;18.54;100.00
4586;BME280;2305;50.118;8.952;2023-05-11T13:06:05;100331.28;;;18.50;100.00
4586;BME280;2305;50.118;8.952;2023-05-11T13:08:37;100326.44;;;18.54;100.00
4586;BME280;2305;50.118;8.952;2023-05-11T13:11:15;100325.06;;;18.58;100.00
4586;BME280;2305;50.118;8.952;2023-05-11T13:13:53;100318.06;;;18.57;100.00
4586;BME280;2305;50.118;8.952;2023-05-11T13:16:25;100325.25;;;18.56;100.00
4586;BME280;2305;50.118;8.952;2023-05-11T13:18:58;100315.75;;;18.54;100.00
4586;BME280;2305;50.118;8.952;2023-05-11T13:21:32;100315.19;;;18.36;100.00
4586;BME280;2305;50.118;8.952;2023-05-11T13:24:02;100317.16;;;18.42;100.00
4586;BME280;2305;50.118;8.952;2023-05-11T13:26:31;100317.31;;;18.48;100.00
4586;BME280;2305;50.118;8.952;2023-05-11T13:29:00;100315.41;;;18.57;100.00
4586;BME280;2305;50.118;8.952;2023-05-11T13:31:43;100310.19;;;18.63;100.00
4586;BME280;2305;50.118;8.952;2023-05-11T13:34:12;100313.84;;;18.40;100.00
4586;BME280;2305;50.118;8.952;2023-05-11T13:36:42;100306.34;;;18.35;100.00
4586;BME280;2305;50.118;8.952;2023-05-11T13:39:15;100311.81;;;18.42;100.00